PWSweather.com
Personal Weather Stations
Station Observations
ISTOCKPO4
Cheadle HulmeGB SK8 6NZ

Cheadle HulmeGB SK8 6NZ

Lat: 53.363783, Lon: -2.1948438

Elevation: 261

Station Type: Davis VP2 with Daytime FARS

http://www.cheadlehulmeweather.co.uk

Latest ConditionsUpdated 6:45:03 PM GMT Saturday, Aug 24, 2019
Currently Today's Max Today's Min Today's Average
Temperature 75.4°F24.1°C 83.5°F28.6°C 54.0°F12.2°C 69.3°F20.7°C
Dew Point 58.6°F14.8°C 60.6°F15.9°C 51.7°F10.9°C 57.2°F14.0°C
Winds 3.0 mph SE4.8 kmh SE 8.0 mph -12.9 kmh - - 3.4 mph 5.5 kmh
Wind Gusts 4.0 mph6.4 kmh 14.0 mph22.5 kmh - -
Humidity 56% 95% 42% 69%
Pressure 29.99 in1015.6 mb 30.11 in1019.6 mb 29.99 in1015.6 mb -
Hour Temp Dew Point Humidity Winds Wind Gusts Pressure Precip Precip Rate Daily Precip Total
06:45 PM 75.4°F24.1°C 58.6°F14.8°C 56% 3.0 mph SE4.8 kmh SE 4.0 mph6.4 kmh 29.99 in1015.6 mb 0.00 in0.0 mm 0.00 in0.0 mm 0.00 in0.0 mm
06:30 PM 76.3°F24.6°C 58.4°F14.7°C 54% 4.0 mph SE6.4 kmh SE 6.0 mph9.7 kmh 29.99 in1015.6 mb 0.00 in0.0 mm 0.00 in0.0 mm 0.00 in0.0 mm
06:15 PM 77.2°F25.1°C 58.2°F14.6°C 52% 3.0 mph SE4.8 kmh SE 5.0 mph8.0 kmh 29.99 in1015.6 mb 0.00 in0.0 mm 0.00 in0.0 mm 0.00 in0.0 mm
06:00 PM 78.1°F25.6°C 57.9°F14.4°C 50% 3.0 mph SE4.8 kmh SE 6.0 mph9.7 kmh 29.99 in1015.6 mb 0.00 in0.0 mm 0.00 in0.0 mm 0.00 in0.0 mm
05:45 PM 79.2°F26.2°C 58.4°F14.7°C 49% 4.0 mph SE6.4 kmh SE 6.0 mph9.7 kmh 29.99 in1015.6 mb 0.00 in0.0 mm 0.00 in0.0 mm 0.00 in0.0 mm
05:30 PM 81.0°F27.2°C 58.8°F14.9°C 47% 3.0 mph SE4.8 kmh SE 6.0 mph9.7 kmh 29.99 in1015.6 mb 0.00 in0.0 mm 0.00 in0.0 mm 0.00 in0.0 mm
05:15 PM 81.7°F27.6°C 58.3°F14.6°C 45% 4.0 mph SE6.4 kmh SE 8.0 mph12.9 kmh 29.99 in1015.6 mb 0.00 in0.0 mm 0.00 in0.0 mm 0.00 in0.0 mm
05:00 PM 82.2°F27.9°C 58.8°F14.9°C 45% 4.0 mph SE6.4 kmh SE 8.0 mph12.9 kmh 30.00 in1015.9 mb 0.00 in0.0 mm 0.00 in0.0 mm 0.00 in0.0 mm
04:45 PM 82.8°F28.2°C 58.6°F14.8°C 44% 6.0 mph SE9.7 kmh SE 10.0 mph16.1 kmh 30.00 in1015.9 mb 0.00 in0.0 mm 0.00 in0.0 mm 0.00 in0.0 mm
04:30 PM 82.6°F28.1°C 58.5°F14.7°C 44% 5.0 mph SSE8.0 kmh SSE 11.0 mph17.7 kmh 30.00 in1015.9 mb 0.00 in0.0 mm 0.00 in0.0 mm 0.00 in0.0 mm
04:15 PM 82.6°F28.1°C 57.8°F14.3°C 43% 6.0 mph SSE9.7 kmh SSE 12.0 mph19.3 kmh 30.00 in1015.9 mb 0.00 in0.0 mm 0.00 in0.0 mm 0.00 in0.0 mm
04:00 PM 82.8°F28.2°C 58.0°F14.4°C 43% 6.0 mph SE9.7 kmh SE 11.0 mph17.7 kmh 30.01 in1016.3 mb 0.00 in0.0 mm 0.00 in0.0 mm 0.00 in0.0 mm
03:45 PM 83.5°F28.6°C 58.6°F14.8°C 43% 5.0 mph SSE8.0 kmh SSE 9.0 mph14.5 kmh 30.01 in1016.3 mb 0.00 in0.0 mm 0.00 in0.0 mm 0.00 in0.0 mm
03:30 PM 82.9°F28.3°C 58.1°F14.5°C 43% 6.0 mph SSE9.7 kmh SSE 12.0 mph19.3 kmh 30.01 in1016.3 mb 0.00 in0.0 mm 0.00 in0.0 mm 0.00 in0.0 mm
03:15 PM 82.9°F28.3°C 57.5°F14.2°C 42% 7.0 mph SE11.3 kmh SE 14.0 mph22.5 kmh 30.01 in1016.3 mb 0.00 in0.0 mm 0.00 in0.0 mm 0.00 in0.0 mm
03:00 PM 82.4°F28.0°C 58.3°F14.6°C 44% 6.0 mph SSE9.7 kmh SSE 12.0 mph19.3 kmh 30.02 in1016.6 mb 0.00 in0.0 mm 0.00 in0.0 mm 0.00 in0.0 mm
02:45 PM 82.2°F27.9°C 58.8°F14.9°C 45% 6.0 mph SE9.7 kmh SE 11.0 mph17.7 kmh 30.02 in1016.6 mb 0.00 in0.0 mm 0.00 in0.0 mm 0.00 in0.0 mm
02:30 PM 82.0°F27.8°C 59.8°F15.4°C 47% 7.0 mph SE11.3 kmh SE 12.0 mph19.3 kmh 30.02 in1016.6 mb 0.00 in0.0 mm 0.00 in0.0 mm 0.00 in0.0 mm
02:15 PM 81.5°F27.5°C 59.3°F15.2°C 47% 8.0 mph SE12.9 kmh SE 14.0 mph22.5 kmh 30.03 in1016.9 mb 0.00 in0.0 mm 0.00 in0.0 mm 0.00 in0.0 mm
02:00 PM 81.9°F27.7°C 59.1°F15.1°C 46% 7.0 mph SSE11.3 kmh SSE 13.0 mph20.9 kmh 30.03 in1016.9 mb 0.00 in0.0 mm 0.00 in0.0 mm 0.00 in0.0 mm
01:45 PM 81.0°F27.2°C 60.6°F15.9°C 50% 7.0 mph SSE11.3 kmh SSE 12.0 mph19.3 kmh 30.03 in1016.9 mb 0.00 in0.0 mm 0.00 in0.0 mm 0.00 in0.0 mm
01:30 PM 80.6°F27.0°C 59.1°F15.1°C 48% 6.0 mph S9.7 kmh S 12.0 mph19.3 kmh 30.04 in1017.3 mb 0.00 in0.0 mm 0.00 in0.0 mm 0.00 in0.0 mm
01:15 PM 80.4°F26.9°C 58.9°F14.9°C 48% 7.0 mph SSE11.3 kmh SSE 13.0 mph20.9 kmh 30.04 in1017.3 mb 0.00 in0.0 mm 0.00 in0.0 mm 0.00 in0.0 mm
01:00 PM 80.2°F26.8°C 58.8°F14.9°C 48% 6.0 mph SSE9.7 kmh SSE 14.0 mph22.5 kmh 30.05 in1017.6 mb 0.00 in0.0 mm 0.00 in0.0 mm 0.00 in0.0 mm
12:45 PM 79.7°F26.5°C 58.3°F14.6°C 48% 8.0 mph SSE12.9 kmh SSE 12.0 mph19.3 kmh 30.05 in1017.6 mb 0.00 in0.0 mm 0.00 in0.0 mm 0.00 in0.0 mm
12:30 PM 79.3°F26.3°C 58.5°F14.7°C 49% 6.0 mph SSE9.7 kmh SSE 12.0 mph19.3 kmh 30.05 in1017.6 mb 0.00 in0.0 mm 0.00 in0.0 mm 0.00 in0.0 mm
12:15 PM 79.3°F26.3°C 60.2°F15.7°C 52% 5.0 mph S8.0 kmh S 13.0 mph20.9 kmh 30.05 in1017.6 mb 0.00 in0.0 mm 0.00 in0.0 mm 0.00 in0.0 mm
12:00 PM 79.2°F26.2°C 56.6°F13.7°C 46% 7.0 mph S11.3 kmh S 13.0 mph20.9 kmh 30.05 in1017.6 mb 0.00 in0.0 mm 0.00 in0.0 mm 0.00 in0.0 mm
11:45 AM 79.0°F26.1°C 57.6°F14.2°C 48% 6.0 mph SSE9.7 kmh SSE 11.0 mph17.7 kmh 30.05 in1017.6 mb 0.00 in0.0 mm 0.00 in0.0 mm 0.00 in0.0 mm
11:30 AM 78.6°F25.9°C 58.4°F14.7°C 50% 5.0 mph SE8.0 kmh SE 9.0 mph14.5 kmh 30.06 in1017.9 mb 0.00 in0.0 mm 0.00 in0.0 mm 0.00 in0.0 mm
11:15 AM 78.3°F25.7°C 57.5°F14.2°C 49% 5.0 mph SSE8.0 kmh SSE 11.0 mph17.7 kmh 30.06 in1017.9 mb 0.00 in0.0 mm 0.00 in0.0 mm 0.00 in0.0 mm
11:00 AM 77.4°F25.2°C 57.3°F14.1°C 50% 6.0 mph S9.7 kmh S 12.0 mph19.3 kmh 30.07 in1018.3 mb 0.00 in0.0 mm 0.00 in0.0 mm 0.00 in0.0 mm
10:45 AM 76.8°F24.9°C 56.8°F13.8°C 50% 5.0 mph S8.0 kmh S 11.0 mph17.7 kmh 30.07 in1018.3 mb 0.00 in0.0 mm 0.00 in0.0 mm 0.00 in0.0 mm
10:30 AM 75.7°F24.3°C 59.4°F15.2°C 57% 5.0 mph SE8.0 kmh SE 9.0 mph14.5 kmh 30.07 in1018.3 mb 0.00 in0.0 mm 0.00 in0.0 mm 0.00 in0.0 mm
10:15 AM 74.8°F23.8°C 58.6°F14.8°C 57% 6.0 mph SSE9.7 kmh SSE 11.0 mph17.7 kmh 30.07 in1018.3 mb 0.00 in0.0 mm 0.00 in0.0 mm 0.00 in0.0 mm
10:00 AM 74.3°F23.5°C 56.6°F13.7°C 54% 6.0 mph SSE9.7 kmh SSE 11.0 mph17.7 kmh 30.07 in1018.3 mb 0.00 in0.0 mm 0.00 in0.0 mm 0.00 in0.0 mm
09:45 AM 73.6°F23.1°C 57.9°F14.4°C 58% 5.0 mph SE8.0 kmh SE 9.0 mph14.5 kmh 30.07 in1018.3 mb 0.00 in0.0 mm 0.00 in0.0 mm 0.00 in0.0 mm
09:30 AM 72.3°F22.4°C 58.1°F14.5°C 61% 5.0 mph SE8.0 kmh SE 9.0 mph14.5 kmh 30.08 in1018.6 mb 0.00 in0.0 mm 0.00 in0.0 mm 0.00 in0.0 mm
09:15 AM 70.3°F21.3°C 58.0°F14.4°C 65% 6.0 mph S9.7 kmh S 10.0 mph16.1 kmh 30.08 in1018.6 mb 0.00 in0.0 mm 0.00 in0.0 mm 0.00 in0.0 mm
09:00 AM 68.2°F20.1°C 57.6°F14.2°C 69% 4.0 mph SSE6.4 kmh SSE 8.0 mph12.9 kmh 30.08 in1018.6 mb 0.00 in0.0 mm 0.00 in0.0 mm 0.00 in0.0 mm
08:45 AM 66.9°F19.4°C 58.4°F14.7°C 74% 4.0 mph SSE6.4 kmh SSE 9.0 mph14.5 kmh 30.08 in1018.6 mb 0.00 in0.0 mm 0.00 in0.0 mm 0.00 in0.0 mm
08:30 AM 65.1°F18.4°C 59.1°F15.1°C 81% 3.0 mph SE4.8 kmh SE 6.0 mph9.7 kmh 30.08 in1018.6 mb 0.00 in0.0 mm 0.00 in0.0 mm 0.00 in0.0 mm
08:15 AM 62.8°F17.1°C 58.9°F14.9°C 87% 3.0 mph SE4.8 kmh SE 6.0 mph9.7 kmh 30.08 in1018.6 mb 0.00 in0.0 mm 0.00 in0.0 mm 0.00 in0.0 mm
08:00 AM 60.4°F15.8°C 58.4°F14.7°C 93% 1.0 mph SE1.6 kmh SE 4.0 mph6.4 kmh 30.08 in1018.6 mb 0.00 in0.0 mm 0.00 in0.0 mm 0.00 in0.0 mm
07:45 AM 59.7°F15.4°C 57.7°F14.3°C 93% Calm Calm -- 30.08 in1018.6 mb 0.00 in0.0 mm 0.00 in0.0 mm 0.00 in0.0 mm
07:30 AM 59.7°F15.4°C 58.0°F14.4°C 94% Calm Calm -- 30.08 in1018.6 mb 0.00 in0.0 mm 0.00 in0.0 mm 0.00 in0.0 mm
07:15 AM 59.7°F15.4°C 58.0°F14.4°C 94% Calm Calm -- 30.09 in1019.0 mb 0.00 in0.0 mm 0.00 in0.0 mm 0.00 in0.0 mm
07:00 AM 59.5°F15.3°C 58.1°F14.5°C 95% Calm Calm -- 30.08 in1018.6 mb 0.00 in0.0 mm 0.00 in0.0 mm 0.00 in0.0 mm
06:45 AM 58.6°F14.8°C 56.9°F13.8°C 94% 2.0 mph SE3.2 kmh SE 4.0 mph6.4 kmh 30.08 in1018.6 mb 0.00 in0.0 mm 0.00 in0.0 mm 0.00 in0.0 mm
06:30 AM 57.7°F14.3°C 56.3°F13.5°C 95% 2.0 mph SE3.2 kmh SE 4.0 mph6.4 kmh 30.08 in1018.6 mb 0.00 in0.0 mm 0.00 in0.0 mm 0.00 in0.0 mm
06:15 AM 56.5°F13.6°C 54.8°F12.7°C 94% 2.0 mph SE3.2 kmh SE 4.0 mph6.4 kmh 30.08 in1018.6 mb 0.00 in0.0 mm 0.00 in0.0 mm 0.00 in0.0 mm
06:00 AM 55.2°F12.9°C 53.5°F11.9°C 94% 2.0 mph SE3.2 kmh SE 4.0 mph6.4 kmh 30.08 in1018.6 mb 0.00 in0.0 mm 0.00 in0.0 mm 0.00 in0.0 mm
05:45 AM 55.2°F12.9°C 53.5°F11.9°C 94% 1.0 mph SE1.6 kmh SE 2.0 mph3.2 kmh 30.09 in1019.0 mb 0.00 in0.0 mm 0.00 in0.0 mm 0.00 in0.0 mm
05:30 AM 55.0°F12.8°C 53.1°F11.7°C 93% 2.0 mph SE3.2 kmh SE 4.0 mph6.4 kmh 30.09 in1019.0 mb 0.00 in0.0 mm 0.00 in0.0 mm 0.00 in0.0 mm
05:15 AM 54.9°F12.7°C 52.9°F11.6°C 93% 2.0 mph SE3.2 kmh SE 3.0 mph4.8 kmh 30.09 in1019.0 mb 0.00 in0.0 mm 0.00 in0.0 mm 0.00 in0.0 mm
05:00 AM 54.0°F12.2°C 51.7°F10.9°C 92% Calm Calm 3.0 mph4.8 kmh 30.09 in1019.0 mb 0.00 in0.0 mm 0.00 in0.0 mm 0.00 in0.0 mm
04:45 AM 54.3°F12.4°C 52.0°F11.1°C 92% Calm Calm -- 30.09 in1019.0 mb 0.00 in0.0 mm 0.00 in0.0 mm 0.00 in0.0 mm
04:30 AM 54.9°F12.7°C 52.6°F11.4°C 92% Calm Calm -- 30.09 in1019.0 mb 0.00 in0.0 mm 0.00 in0.0 mm 0.00 in0.0 mm
04:15 AM 55.4°F13.0°C 53.1°F11.7°C 92% Calm Calm -- 30.09 in1019.0 mb 0.00 in0.0 mm 0.00 in0.0 mm 0.00 in0.0 mm
04:00 AM 56.1°F13.4°C 53.8°F12.1°C 92% Calm Calm -- 30.09 in1019.0 mb 0.00 in0.0 mm 0.00 in0.0 mm 0.00 in0.0 mm
03:45 AM 57.0°F13.9°C 55.0°F12.8°C 93% Calm Calm -- 30.09 in1019.0 mb 0.00 in0.0 mm 0.00 in0.0 mm 0.00 in0.0 mm
03:30 AM 57.6°F14.2°C 55.3°F12.9°C 92% Calm Calm -- 30.09 in1019.0 mb 0.00 in0.0 mm 0.00 in0.0 mm 0.00 in0.0 mm
03:15 AM 57.7°F14.3°C 55.4°F13.0°C 92% Calm Calm -- 30.09 in1019.0 mb 0.00 in0.0 mm 0.00 in0.0 mm 0.00 in0.0 mm
03:00 AM 57.9°F14.4°C 55.6°F13.1°C 92% Calm Calm 3.0 mph4.8 kmh 30.10 in1019.3 mb 0.00 in0.0 mm 0.00 in0.0 mm 0.00 in0.0 mm
02:45 AM 58.5°F14.7°C 56.1°F13.4°C 92% 2.0 mph SE3.2 kmh SE 3.0 mph4.8 kmh 30.10 in1019.3 mb 0.00 in0.0 mm 0.00 in0.0 mm 0.00 in0.0 mm
02:30 AM 58.3°F14.6°C 56.0°F13.3°C 92% 1.0 mph SE1.6 kmh SE 3.0 mph4.8 kmh 30.10 in1019.3 mb 0.00 in0.0 mm 0.00 in0.0 mm 0.00 in0.0 mm
02:15 AM 58.6°F14.8°C 56.3°F13.5°C 92% Calm Calm -- 30.10 in1019.3 mb 0.00 in0.0 mm 0.00 in0.0 mm 0.00 in0.0 mm
02:00 AM 59.0°F15.0°C 56.7°F13.7°C 92% 2.0 mph SE3.2 kmh SE 3.0 mph4.8 kmh 30.10 in1019.3 mb 0.00 in0.0 mm 0.00 in0.0 mm 0.00 in0.0 mm
01:45 AM 58.8°F14.9°C 56.2°F13.4°C 91% 1.0 mph SE1.6 kmh SE 3.0 mph4.8 kmh 30.10 in1019.3 mb 0.00 in0.0 mm 0.00 in0.0 mm 0.00 in0.0 mm
01:30 AM 59.0°F15.0°C 56.4°F13.6°C 91% Calm Calm -- 30.10 in1019.3 mb 0.00 in0.0 mm 0.00 in0.0 mm 0.00 in0.0 mm
01:15 AM 59.4°F15.2°C 56.7°F13.7°C 91% 1.0 mph SE1.6 kmh SE 3.0 mph4.8 kmh 30.11 in1019.6 mb 0.00 in0.0 mm 0.00 in0.0 mm 0.00 in0.0 mm
01:00 AM 59.5°F15.3°C 56.6°F13.7°C 90% Calm Calm 1.0 mph1.6 kmh 30.11 in1019.6 mb 0.00 in0.0 mm 0.00 in0.0 mm 0.00 in0.0 mm
12:45 AM 59.9°F15.5°C 56.6°F13.7°C 89% 1.0 mph SE1.6 kmh SE 3.0 mph4.8 kmh 30.11 in1019.6 mb 0.00 in0.0 mm 0.00 in0.0 mm 0.00 in0.0 mm
12:30 AM 60.4°F15.8°C 57.2°F14.0°C 89% 1.0 mph SE1.6 kmh SE 3.0 mph4.8 kmh 30.11 in1019.6 mb 0.00 in0.0 mm 0.00 in0.0 mm 0.00 in0.0 mm
12:15 AM 60.6°F15.9°C 57.0°F13.9°C 88% 2.0 mph SE3.2 kmh SE 4.0 mph6.4 kmh 30.10 in1019.3 mb 0.00 in0.0 mm 0.00 in0.0 mm 0.00 in0.0 mm
12:00 AM 61.0°F16.1°C 57.1°F13.9°C 87% 1.0 mph SSE1.6 kmh SSE 3.0 mph4.8 kmh 30.11 in1019.6 mb 0.00 in0.0 mm 0.00 in0.0 mm 0.00 in0.0 mm